createdAt,value
2023-04-18T00:00:12.340Z,15.08
2023-04-18T00:02:40.305Z,15.07
2023-04-18T00:05:08.734Z,15.05
2023-04-18T00:07:36.069Z,15.04
2023-04-18T00:10:06.019Z,15.03
2023-04-18T00:12:34.448Z,15.02
2023-04-18T00:15:02.397Z,14.98
2023-04-18T00:17:31.960Z,14.96
2023-04-18T00:20:02.401Z,14.94
2023-04-18T00:22:30.659Z,14.92
2023-04-18T00:24:57.721Z,14.89
2023-04-18T00:27:24.650Z,14.87
2023-04-18T00:29:51.726Z,14.88
2023-04-18T00:32:19.757Z,14.87
2023-04-18T00:34:46.932Z,14.87
2023-04-18T00:37:13.880Z,14.87
2023-04-18T00:39:42.399Z,14.83
2023-04-18T00:42:09.416Z,14.81
2023-04-18T00:44:36.395Z,14.79
2023-04-18T00:47:03.508Z,14.76
2023-04-18T00:49:30.867Z,14.75
2023-04-18T00:51:58.841Z,14.71
2023-04-18T00:54:27.960Z,14.67
2023-04-18T00:56:55.462Z,14.63
2023-04-18T00:59:23.236Z,14.61
2023-04-18T01:01:50.476Z,14.59
2023-04-18T01:04:17.816Z,14.56
2023-04-18T01:06:45.794Z,14.54
2023-04-18T01:09:14.131Z,14.53
2023-04-18T01:11:41.394Z,14.50
2023-04-18T01:14:10.056Z,14.47
2023-04-18T01:16:37.220Z,14.45
2023-04-18T01:19:05.897Z,14.45
2023-04-18T01:21:36.163Z,14.42
2023-04-18T01:24:12.553Z,14.42
2023-04-18T01:26:45.956Z,14.40
2023-04-18T01:29:14.111Z,14.41
2023-04-18T01:31:42.427Z,14.41
2023-04-18T01:34:09.735Z,14.39
2023-04-18T01:36:39.639Z,14.36
2023-04-18T01:39:07.257Z,14.36
2023-04-18T01:41:34.286Z,14.32
2023-04-18T01:44:01.723Z,14.27
2023-04-18T01:46:29.452Z,14.26
2023-04-18T01:48:57.897Z,14.24
2023-04-18T01:51:26.430Z,14.23
2023-04-18T01:53:54.117Z,14.19
2023-04-18T01:56:21.190Z,14.15
2023-04-18T01:58:48.356Z,14.13
2023-04-18T02:01:15.583Z,14.10
2023-04-18T02:03:43.212Z,14.11
2023-04-18T02:06:11.086Z,14.10
2023-04-18T02:08:38.738Z,14.09
2023-04-18T02:11:06.077Z,14.11
2023-04-18T02:13:33.198Z,14.11
2023-04-18T02:16:00.324Z,14.11
2023-04-18T02:18:27.939Z,14.09
2023-04-18T02:20:55.025Z,14.07
2023-04-18T02:23:22.574Z,14.05
2023-04-18T02:25:50.839Z,14.04
2023-04-18T02:28:18.119Z,14.01
2023-04-18T02:30:45.329Z,14.00
2023-04-18T02:33:12.302Z,13.96
2023-04-18T02:35:39.336Z,13.95
2023-04-18T02:38:06.456Z,13.93
2023-04-18T02:40:33.690Z,13.92
2023-04-18T02:43:02.121Z,13.85
2023-04-18T02:45:29.633Z,13.76
2023-04-18T02:47:59.721Z,13.67
2023-04-18T02:50:27.163Z,13.63
2023-04-18T02:52:56.208Z,13.60
2023-04-18T02:55:28.248Z,13.59
2023-04-18T02:57:59.117Z,13.58
2023-04-18T03:00:44.593Z,13.58
2023-04-18T03:03:41.187Z,13.56
2023-04-18T03:06:27.506Z,13.49
2023-04-18T03:08:56.267Z,13.44
2023-04-18T03:11:24.880Z,13.42
2023-04-18T03:13:54.030Z,13.40
2023-04-18T03:16:22.993Z,13.40
2023-04-18T03:18:50.306Z,13.41
2023-04-18T03:21:18.421Z,13.40
2023-04-18T03:23:45.616Z,13.41
2023-04-18T03:26:13.993Z,13.40
2023-04-18T03:28:42.782Z,13.36
2023-04-18T03:31:10.537Z,13.35
2023-04-18T03:33:42.423Z,13.33
2023-04-18T03:36:12.378Z,13.33
2023-04-18T03:38:40.712Z,13.28
2023-04-18T03:41:08.795Z,13.28
2023-04-18T03:43:37.757Z,13.29
2023-04-18T03:46:05.485Z,13.29
2023-04-18T03:48:35.892Z,13.30
2023-04-18T03:51:07.200Z,13.24
2023-04-18T03:53:35.069Z,13.22
2023-04-18T03:56:02.323Z,13.18
2023-04-18T03:59:02.522Z,13.14
2023-04-18T04:01:31.014Z,13.12
2023-04-18T04:03:58.519Z,13.08
2023-04-18T04:06:26.517Z,12.98
2023-04-18T04:08:55.802Z,12.97
2023-04-18T04:11:26.054Z,12.97
2023-04-18T04:13:53.397Z,12.99
2023-04-18T04:16:25.150Z,12.99
2023-04-18T04:18:54.792Z,12.98
2023-04-18T04:21:27.174Z,12.97
2023-04-18T04:23:54.220Z,12.96
2023-04-18T04:26:36.120Z,12.95
2023-04-18T04:29:10.906Z,12.94
2023-04-18T04:31:39.682Z,12.96
2023-04-18T04:34:07.106Z,12.97
2023-04-18T04:36:35.025Z,12.99
2023-04-18T04:39:05.453Z,12.99
2023-04-18T04:41:42.164Z,12.98
2023-04-18T04:44:10.079Z,13.00
2023-04-18T04:46:39.595Z,12.98
2023-04-18T04:49:12.343Z,12.96
2023-04-18T04:51:40.224Z,12.94
2023-04-18T04:54:07.347Z,12.89
2023-04-18T04:56:34.749Z,12.86
2023-04-18T04:59:02.493Z,12.88
2023-04-18T05:01:40.919Z,12.86
2023-04-18T05:04:08.653Z,12.86
2023-04-18T05:06:37.883Z,12.86
2023-04-18T05:09:06.413Z,12.85
2023-04-18T05:11:39.751Z,12.85
2023-04-18T05:14:06.796Z,12.84
2023-04-18T05:16:34.166Z,12.86
2023-04-18T05:19:01.470Z,12.88
2023-04-18T05:21:29.512Z,12.91
2023-04-18T05:23:56.456Z,12.93
2023-04-18T05:26:24.591Z,12.95
2023-04-18T05:28:51.773Z,12.94
2023-04-18T05:31:18.968Z,12.92
2023-04-18T05:33:46.070Z,12.94
2023-04-18T05:36:13.571Z,12.95
2023-04-18T05:38:40.737Z,13.00
2023-04-18T05:41:07.876Z,13.01
2023-04-18T05:43:35.323Z,13.05
2023-04-18T05:46:03.361Z,13.08
2023-04-18T05:48:30.708Z,13.13
2023-04-18T05:50:58.086Z,13.17
2023-04-18T05:53:25.283Z,13.22
2023-04-18T05:55:52.267Z,13.27
2023-04-18T05:58:19.599Z,13.33
2023-04-18T06:00:48.346Z,13.36
2023-04-18T06:03:16.163Z,13.40
2023-04-18T06:05:43.764Z,13.44
2023-04-18T06:08:10.907Z,13.47
2023-04-18T06:10:39.262Z,13.52
2023-04-18T06:13:06.423Z,13.55
2023-04-18T06:15:35.461Z,13.55
2023-04-18T06:18:02.537Z,13.60
2023-04-18T06:20:29.672Z,13.63
2023-04-18T06:22:56.694Z,13.66
2023-04-18T06:25:24.944Z,13.68
2023-04-18T06:27:51.986Z,13.72
2023-04-18T06:30:22.020Z,13.76
2023-04-18T06:32:49.584Z,13.80
2023-04-18T06:35:16.921Z,13.84
2023-04-18T06:37:44.981Z,13.88
2023-04-18T06:40:12.652Z,13.92
2023-04-18T06:42:39.938Z,13.94
2023-04-18T06:45:07.921Z,13.99
2023-04-18T06:50:02.146Z,14.12
2023-04-18T06:52:29.230Z,14.17
2023-04-18T06:54:56.267Z,14.22
2023-04-18T06:57:23.579Z,14.29
2023-04-18T06:59:50.902Z,14.36
2023-04-18T07:02:17.949Z,14.43
2023-04-18T07:04:45.203Z,14.48
2023-04-18T07:07:12.319Z,14.55
2023-04-18T07:09:39.522Z,14.58
2023-04-18T07:12:06.838Z,14.61
2023-04-18T07:14:34.283Z,14.65
2023-04-18T07:17:02.182Z,14.71
2023-04-18T07:19:29.334Z,14.76
2023-04-18T07:21:56.699Z,14.80
2023-04-18T07:24:24.013Z,14.85
2023-04-18T07:26:54.801Z,14.89
2023-04-18T07:29:22.254Z,14.92
2023-04-18T07:31:49.946Z,14.96
2023-04-18T07:34:17.904Z,15.02
2023-04-18T07:36:45.104Z,15.06
2023-04-18T07:39:12.173Z,15.13
2023-04-18T07:41:39.143Z,15.17
2023-04-18T07:44:07.573Z,15.22
2023-04-18T07:46:34.976Z,15.26
2023-04-18T07:49:02.519Z,15.29
2023-04-18T07:51:32.447Z,15.36
2023-04-18T07:53:59.815Z,15.40
2023-04-18T07:56:28.113Z,15.47
2023-04-18T07:58:55.740Z,15.53
2023-04-18T08:01:24.337Z,15.58
2023-04-18T08:03:53.627Z,15.62
2023-04-18T08:06:21.502Z,15.68
2023-04-18T08:08:49.039Z,15.72
2023-04-18T08:11:16.618Z,15.78
2023-04-18T08:13:43.760Z,15.83
2023-04-18T08:16:11.133Z,15.91
2023-04-18T08:18:38.398Z,15.96
2023-04-18T08:21:05.635Z,16.02
2023-04-18T08:23:32.727Z,16.07
2023-04-18T08:25:59.853Z,16.12
2023-04-18T08:28:26.963Z,16.19
2023-04-18T08:30:55.339Z,16.23
2023-04-18T08:33:24.078Z,16.31
2023-04-18T08:35:51.936Z,16.36
2023-04-18T08:38:19.396Z,16.44
2023-04-18T08:40:47.202Z,16.49
2023-04-18T08:43:15.788Z,16.55
2023-04-18T08:45:44.709Z,16.60
2023-04-18T08:48:14.112Z,16.67
2023-04-18T08:50:42.385Z,16.73
2023-04-18T08:53:10.674Z,16.78
2023-04-18T08:55:37.951Z,16.85
2023-04-18T08:58:06.958Z,16.92
2023-04-18T09:00:34.298Z,16.97
2023-04-18T09:03:03.812Z,17.07
2023-04-18T09:05:32.525Z,17.14
2023-04-18T09:08:02.039Z,17.21
2023-04-18T09:10:34.508Z,17.19
2023-04-18T09:13:04.429Z,17.25
2023-04-18T09:15:31.976Z,17.38
2023-04-18T09:18:03.230Z,17.48
2023-04-18T09:20:41.439Z,17.37
2023-04-18T09:23:14.589Z,17.40
2023-04-18T09:25:44.382Z,17.46
2023-04-18T09:28:31.903Z,17.56
2023-04-18T09:31:15.639Z,17.62
2023-04-18T09:33:56.971Z,17.74
2023-04-18T09:36:31.182Z,17.78
2023-04-18T09:38:58.868Z,17.87
2023-04-18T09:41:27.121Z,18.00
2023-04-18T09:44:14.641Z,18.12
2023-04-18T09:46:46.165Z,18.24
2023-04-18T09:49:14.912Z,18.22
2023-04-18T09:51:44.675Z,18.37
2023-04-18T09:54:16.215Z,18.42
2023-04-18T09:56:46.152Z,18.50
2023-04-18T09:59:18.660Z,18.55
2023-04-18T10:01:49.824Z,18.64
2023-04-18T10:04:18.388Z,18.69
2023-04-18T10:06:46.524Z,18.75
2023-04-18T10:09:16.095Z,18.84
2023-04-18T10:11:44.641Z,18.87
2023-04-18T10:14:14.218Z,18.95
2023-04-18T10:16:43.078Z,19.02
2023-04-18T10:19:30.400Z,19.01
2023-04-18T10:22:01.046Z,19.08
2023-04-18T10:24:53.602Z,19.11
2023-04-18T10:27:48.750Z,19.20
2023-04-18T10:30:17.205Z,19.29
2023-04-18T10:32:46.946Z,19.25
2023-04-18T10:35:14.227Z,19.37
2023-04-18T10:37:51.865Z,19.51
2023-04-18T10:40:34.125Z,19.54
2023-04-18T10:43:01.730Z,19.70
2023-04-18T10:45:32.605Z,19.69
2023-04-18T10:48:24.669Z,19.82
2023-04-18T10:51:20.927Z,19.97
2023-04-18T10:54:00.463Z,19.82
2023-04-18T10:56:29.115Z,19.97
2023-04-18T10:59:03.378Z,20.01
2023-04-18T11:01:33.140Z,20.02
2023-04-18T11:04:01.496Z,20.10
2023-04-18T11:06:30.422Z,20.20
2023-04-18T11:09:12.101Z,20.22
2023-04-18T11:11:41.016Z,20.28
2023-04-18T11:14:08.432Z,20.26
2023-04-18T11:16:36.552Z,20.45
2023-04-18T11:19:22.016Z,20.57
2023-04-18T11:21:49.665Z,20.70
2023-04-18T11:24:26.663Z,20.83
2023-04-18T11:26:56.099Z,20.96
2023-04-18T11:29:23.512Z,21.02
2023-04-18T11:31:55.275Z,21.13
2023-04-18T11:34:30.676Z,21.14
2023-04-18T11:36:58.219Z,21.18
2023-04-18T11:39:25.670Z,21.17
2023-04-18T11:41:55.003Z,21.11
2023-04-18T11:44:26.943Z,21.15
2023-04-18T11:46:54.182Z,21.08
2023-04-18T11:49:29.000Z,21.13
2023-04-18T11:51:56.484Z,21.11
2023-04-18T11:54:45.446Z,21.18
2023-04-18T11:57:39.082Z,21.31
2023-04-18T12:00:08.958Z,21.45
2023-04-18T12:02:59.430Z,21.37
2023-04-18T12:05:38.181Z,21.46
2023-04-18T12:08:20.036Z,21.53
2023-04-18T12:10:50.853Z,21.56
2023-04-18T12:13:19.600Z,21.70
2023-04-18T12:15:47.184Z,21.67
2023-04-18T12:18:18.295Z,21.79
2023-04-18T12:20:54.552Z,21.86
2023-04-18T12:23:40.366Z,21.99
2023-04-18T12:26:18.813Z,21.76
2023-04-18T12:28:48.113Z,21.75
2023-04-18T12:31:15.699Z,21.86
2023-04-18T12:33:43.219Z,22.05
2023-04-18T12:36:10.524Z,22.22
2023-04-18T12:38:37.623Z,22.24
2023-04-18T12:41:05.598Z,22.36
2023-04-18T12:43:32.804Z,22.38
2023-04-18T12:46:00.383Z,22.33
2023-04-18T12:48:27.432Z,22.23
2023-04-18T12:50:54.451Z,22.26
2023-04-18T12:53:21.510Z,22.16
2023-04-18T12:55:48.465Z,22.25
2023-04-18T12:58:18.699Z,22.34
2023-04-18T13:00:46.247Z,22.40
2023-04-18T13:03:13.654Z,22.54
2023-04-18T13:05:41.130Z,22.67
2023-04-18T13:08:17.079Z,22.75
2023-04-18T13:10:47.636Z,22.81
2023-04-18T13:13:14.902Z,22.83
2023-04-18T13:15:42.619Z,22.90
2023-04-18T13:18:09.672Z,22.99
2023-04-18T13:20:36.745Z,23.10
2023-04-18T13:23:04.045Z,23.24
2023-04-18T13:25:31.516Z,23.32
2023-04-18T13:28:00.746Z,23.41
2023-04-18T13:30:28.661Z,23.47
2023-04-18T13:32:56.844Z,23.52
2023-04-18T13:35:23.946Z,23.54
2023-04-18T13:37:50.956Z,23.39
2023-04-18T13:40:18.168Z,23.39
2023-04-18T13:42:45.334Z,23.58
2023-04-18T13:45:12.540Z,23.68
2023-04-18T13:47:39.796Z,23.76
2023-04-18T13:50:09.051Z,23.70
2023-04-18T13:52:36.487Z,23.80
2023-04-18T13:55:04.106Z,23.93
2023-04-18T13:57:32.359Z,24.06
2023-04-18T13:59:59.580Z,24.12
2023-04-18T14:02:26.903Z,24.22
2023-04-18T14:04:55.141Z,24.08
2023-04-18T14:07:22.428Z,24.22
2023-04-18T14:09:50.821Z,24.34
2023-04-18T14:12:18.771Z,24.38
2023-04-18T14:14:45.840Z,24.35
2023-04-18T14:17:12.891Z,24.23
2023-04-18T14:19:39.973Z,24.17
2023-04-18T14:22:07.927Z,24.01
2023-04-18T14:24:37.740Z,23.95
2023-04-18T14:27:04.926Z,23.87
2023-04-18T14:29:32.140Z,23.72
2023-04-18T14:31:59.572Z,23.63
2023-04-18T14:34:26.806Z,23.52
2023-04-18T14:36:53.829Z,23.42
2023-04-18T14:39:21.510Z,23.36
2023-04-18T14:41:48.619Z,23.33
2023-04-18T14:44:15.735Z,23.28
2023-04-18T14:46:43.315Z,23.29
2023-04-18T14:49:10.345Z,23.31
2023-04-18T14:51:37.411Z,23.31
2023-04-18T14:54:04.591Z,23.30
2023-04-18T14:56:31.796Z,23.26
2023-04-18T14:58:58.812Z,23.20
2023-04-18T15:01:26.324Z,23.14
2023-04-18T15:03:53.903Z,23.07
2023-04-18T15:06:21.273Z,23.01
2023-04-18T15:08:48.690Z,22.98
2023-04-18T15:11:15.957Z,22.90
2023-04-18T15:13:43.049Z,22.84
2023-04-18T15:16:10.214Z,22.73
2023-04-18T15:18:37.269Z,22.52
2023-04-18T15:21:04.605Z,22.44
2023-04-18T15:23:32.143Z,22.42
2023-04-18T15:25:59.467Z,22.38
2023-04-18T15:28:26.577Z,22.30
2023-04-18T15:30:54.215Z,22.26
2023-04-18T15:33:21.831Z,22.26
2023-04-18T15:35:48.858Z,22.22
2023-04-18T15:38:15.810Z,22.19
2023-04-18T15:40:43.606Z,22.19
2023-04-18T15:43:10.800Z,22.17
2023-04-18T15:45:37.834Z,22.16
2023-04-18T15:48:05.022Z,22.14
2023-04-18T15:50:33.613Z,22.14
2023-04-18T15:53:00.843Z,22.12
2023-04-18T15:55:28.554Z,22.11
2023-04-18T15:57:56.111Z,22.11
2023-04-18T16:00:24.028Z,22.10
2023-04-18T16:02:51.483Z,22.08
2023-04-18T16:05:19.060Z,22.03
2023-04-18T16:07:46.151Z,22.01
2023-04-18T16:10:15.338Z,21.97
2023-04-18T16:12:43.085Z,21.93
2023-04-18T16:15:11.197Z,21.92
2023-04-18T16:17:38.736Z,21.90
2023-04-18T16:20:08.581Z,21.87
2023-04-18T16:22:37.019Z,21.85
2023-04-18T16:25:05.196Z,21.82
2023-04-18T16:27:33.154Z,21.77
2023-04-18T16:30:02.097Z,21.73
2023-04-18T16:32:30.760Z,21.69
2023-04-18T16:34:58.214Z,21.64
2023-04-18T16:37:25.400Z,21.59
2023-04-18T16:39:52.613Z,21.55
2023-04-18T16:42:19.811Z,21.50
2023-04-18T16:44:47.347Z,21.45
2023-04-18T16:47:14.422Z,21.41
2023-04-18T16:49:43.534Z,21.36
2023-04-18T16:52:10.553Z,21.30
2023-04-18T16:54:37.607Z,21.26
2023-04-18T16:57:05.230Z,21.19
2023-04-18T16:59:32.421Z,21.15
2023-04-18T17:01:59.740Z,21.09
2023-04-18T17:04:27.206Z,21.03
2023-04-18T17:06:54.340Z,20.99
2023-04-18T17:09:22.047Z,20.93
2023-04-18T17:11:49.938Z,20.86
2023-04-18T17:14:18.341Z,20.83
2023-04-18T17:16:45.967Z,20.77
2023-04-18T17:19:13.378Z,20.73
2023-04-18T17:21:40.709Z,20.67
2023-04-18T17:24:08.124Z,20.61
2023-04-18T17:26:37.906Z,20.53
2023-04-18T17:29:04.994Z,20.45
2023-04-18T17:31:32.837Z,20.37
2023-04-18T17:34:00.396Z,20.29
2023-04-18T17:36:27.865Z,20.23
2023-04-18T17:38:55.481Z,20.19
2023-04-18T17:41:22.778Z,20.14
2023-04-18T17:43:53.598Z,20.10
2023-04-18T17:46:20.658Z,20.07
2023-04-18T17:48:47.707Z,20.03
2023-04-18T17:51:16.474Z,20.00
2023-04-18T17:53:46.940Z,19.95
2023-04-18T17:56:13.906Z,19.90
2023-04-18T17:58:41.225Z,19.86
2023-04-18T18:01:19.603Z,19.81
2023-04-18T18:03:48.241Z,19.76
2023-04-18T18:06:15.891Z,19.71
2023-04-18T18:08:43.561Z,19.67
2023-04-18T18:11:10.801Z,19.60
2023-04-18T18:13:39.163Z,19.56
2023-04-18T18:16:07.611Z,19.51
2023-04-18T18:18:35.399Z,19.44
2023-04-18T18:21:02.615Z,19.37
2023-04-18T18:23:29.550Z,19.31
2023-04-18T18:25:56.507Z,19.28
2023-04-18T18:28:23.495Z,19.23
2023-04-18T18:30:50.823Z,19.18
2023-04-18T18:33:18.115Z,19.12
2023-04-18T18:35:45.010Z,19.07
2023-04-18T18:38:12.031Z,19.01
2023-04-18T18:40:39.300Z,18.94
2023-04-18T18:43:06.419Z,18.89
2023-04-18T18:45:33.784Z,18.85
2023-04-18T18:48:00.852Z,18.81
2023-04-18T18:50:27.941Z,18.74
2023-04-18T18:52:55.011Z,18.68
2023-04-18T18:55:22.375Z,18.67
2023-04-18T18:57:49.806Z,18.63
2023-04-18T19:00:17.548Z,18.57
2023-04-18T19:02:46.214Z,18.54
2023-04-18T19:05:13.368Z,18.50
2023-04-18T19:07:43.557Z,18.48
2023-04-18T19:10:11.309Z,18.44
2023-04-18T19:12:38.563Z,18.41
2023-04-18T19:15:06.812Z,18.39
2023-04-18T19:17:34.088Z,18.36
2023-04-18T19:20:01.583Z,18.32
2023-04-18T19:22:29.838Z,18.30
2023-04-18T19:24:57.420Z,18.25
2023-04-18T19:27:24.389Z,18.21
2023-04-18T19:29:51.479Z,18.19
2023-04-18T19:32:18.472Z,18.15
2023-04-18T19:34:45.721Z,18.10
2023-04-18T19:37:12.768Z,18.05
2023-04-18T19:39:39.701Z,18.02
2023-04-18T19:42:07.456Z,17.98
2023-04-18T19:44:34.925Z,17.94
2023-04-18T19:47:01.911Z,17.92
2023-04-18T19:49:28.896Z,17.89
2023-04-18T19:51:55.892Z,17.86
2023-04-18T19:54:23.003Z,17.83
2023-04-18T19:56:50.407Z,17.81
2023-04-18T19:59:17.445Z,17.79
2023-04-18T20:01:44.895Z,17.78
2023-04-18T20:04:12.401Z,17.76
2023-04-18T20:06:39.545Z,17.74
2023-04-18T20:09:08.725Z,17.73
2023-04-18T20:11:36.100Z,17.70
2023-04-18T20:14:03.490Z,17.68
2023-04-18T20:16:30.537Z,17.66
2023-04-18T20:18:57.598Z,17.61
2023-04-18T20:21:24.614Z,17.58
2023-04-18T20:24:00.707Z,17.59
2023-04-18T20:26:27.875Z,17.55
2023-04-18T20:28:54.888Z,17.51
2023-04-18T20:31:22.172Z,17.49
2023-04-18T20:33:49.314Z,17.47
2023-04-18T20:36:17.738Z,17.46
2023-04-18T20:38:45.036Z,17.43
2023-04-18T20:41:18.149Z,17.40
2023-04-18T20:43:46.108Z,17.36
2023-04-18T20:46:19.726Z,17.34
2023-04-18T20:48:46.911Z,17.31
2023-04-18T20:51:14.827Z,17.27
2023-04-18T20:53:41.828Z,17.25
2023-04-18T20:56:08.788Z,17.22
2023-04-18T20:58:36.251Z,17.22
2023-04-18T21:01:03.932Z,17.19
2023-04-18T21:03:31.233Z,17.18
2023-04-18T21:05:58.284Z,17.16
2023-04-18T21:08:25.720Z,17.15
2023-04-18T21:10:53.135Z,17.13
2023-04-18T21:13:20.112Z,17.12
2023-04-18T21:15:47.463Z,17.09
2023-04-18T21:18:14.430Z,17.08
2023-04-18T21:20:41.473Z,17.05
2023-04-18T21:23:08.432Z,17.01
2023-04-18T21:25:35.522Z,16.98
2023-04-18T21:28:02.828Z,16.94
2023-04-18T21:30:30.158Z,16.92
2023-04-18T21:32:57.306Z,16.87
2023-04-18T21:35:25.148Z,16.86
2023-04-18T21:37:52.332Z,16.82
2023-04-18T21:40:19.466Z,16.78
2023-04-18T21:42:47.769Z,16.73
2023-04-18T21:45:17.509Z,16.69
2023-04-18T21:47:44.583Z,16.64
2023-04-18T21:50:11.906Z,16.60
2023-04-18T21:52:39.060Z,16.55
2023-04-18T21:55:06.343Z,16.53
2023-04-18T21:57:33.597Z,16.50
2023-04-18T22:00:01.226Z,16.47
2023-04-18T22:02:29.635Z,16.43
2023-04-18T22:04:56.712Z,16.39
2023-04-18T22:07:24.699Z,16.33
2023-04-18T22:09:51.700Z,16.29
2023-04-18T22:12:19.110Z,16.26
2023-04-18T22:14:48.393Z,16.23
2023-04-18T22:17:15.457Z,16.19
2023-04-18T22:19:44.388Z,16.15
2023-04-18T22:22:11.729Z,16.11
2023-04-18T22:24:38.718Z,16.09
2023-04-18T22:27:05.930Z,16.08
2023-04-18T22:29:33.813Z,16.06
2023-04-18T22:32:01.241Z,16.04
2023-04-18T22:34:28.324Z,15.99
2023-04-18T22:36:55.360Z,15.96
2023-04-18T22:39:22.973Z,15.93
2023-04-18T22:41:50.257Z,15.88
2023-04-18T22:44:17.836Z,15.86
2023-04-18T22:46:46.156Z,15.84
2023-04-18T22:49:14.370Z,15.81
2023-04-18T22:51:42.401Z,15.80
2023-04-18T22:54:09.680Z,15.79
2023-04-18T22:56:36.661Z,15.77
2023-04-18T22:59:03.719Z,15.77
2023-04-18T23:01:30.939Z,15.75
2023-04-18T23:03:58.579Z,15.74
2023-04-18T23:06:27.836Z,15.75
2023-04-18T23:08:55.017Z,15.72
2023-04-18T23:11:22.337Z,15.72
2023-04-18T23:13:49.524Z,15.74
2023-04-18T23:16:16.599Z,15.73
2023-04-18T23:18:43.571Z,15.72
2023-04-18T23:21:10.585Z,15.70
2023-04-18T23:23:37.556Z,15.72
2023-04-18T23:26:15.728Z,15.70
2023-04-18T23:28:42.791Z,15.66
2023-04-18T23:31:10.339Z,15.65
2023-04-18T23:33:37.562Z,15.65
2023-04-18T23:36:04.690Z,15.62
2023-04-18T23:38:32.583Z,15.63
2023-04-18T23:40:59.748Z,15.59
2023-04-18T23:43:26.909Z,15.57
2023-04-18T23:45:53.856Z,15.55
2023-04-18T23:48:21.364Z,15.53
2023-04-18T23:50:50.347Z,15.53
2023-04-18T23:53:17.560Z,15.52
2023-04-18T23:55:46.214Z,15.52
2023-04-18T23:58:14.174Z,15.52
